Time;durP1;ratioP1;P1;durP2;ratioP2;P2;SDS_P1;SDS_P2;PMS_P1;PMS_P2;Temp;Humidity;BMP_temperature;BMP_pressure;BME280_temperature;BME280_humidity;BME280_pressure;Samples;Min_cycle;Max_cycle;Signal;HPM_P1;HPM_P2
2023/08/07 00:00:33;;;;;;;4.72;2.70;;;;;;;;;;4977052;28;20054;-79
2023/08/07 00:02:59;;;;;;;6.90;3.05;;;;;;;;;;4981490;28;20043;-79
2023/08/07 00:05:26;;;;;;;3.47;2.60;;;;;;;;;;4962337;28;20030;-77
2023/08/07 00:07:54;;;;;;;4.40;2.83;;;;;;;;;;4984102;28;20054;-79
2023/08/07 00:10:20;;;;;;;3.30;2.20;;;;;;;;;;4978060;28;21307;-78
2023/08/07 00:12:47;;;;;;;6.75;2.38;;;;;;;;;;4981167;28;20098;-79
2023/08/07 00:15:14;;;;;;;2.50;2.05;;;;;;;;;;4986479;28;20512;-78
2023/08/07 00:17:41;;;;;;;3.67;2.13;;;;;;;;;;4978745;28;20042;-79
2023/08/07 00:20:07;;;;;;;3.10;2.10;;;;;;;;;;4984171;28;20100;-78
2023/08/07 00:22:34;;;;;;;4.47;2.00;;;;;;;;;;4979387;28;20047;-78
2023/08/07 00:25:32;;;;;;;2.47;1.85;;;;;;;;;;4977578;28;20144;-78
2023/08/07 00:27:59;;;;;;;2.25;1.70;;;;;;;;;;4981635;28;20061;-78
2023/08/07 00:30:25;;;;;;;3.15;1.90;;;;;;;;;;4978927;28;20042;-78
2023/08/07 00:32:52;;;;;;;2.78;2.20;;;;;;;;;;4971581;28;20038;-77
2023/08/07 00:35:19;;;;;;;4.30;2.30;;;;;;;;;;4959075;28;20412;-78
2023/08/07 00:37:46;;;;;;;4.05;2.17;;;;;;;;;;4979089;28;20039;-78
2023/08/07 00:40:13;;;;;;;5.57;2.70;;;;;;;;;;4983699;28;20069;-78
2023/08/07 00:42:39;;;;;;;5.30;2.45;;;;;;;;;;4977906;28;20046;-78
2023/08/07 00:45:07;;;;;;;3.90;2.63;;;;;;;;;;4982829;28;20042;-78
2023/08/07 00:47:34;;;;;;;4.07;2.70;;;;;;;;;;4962472;28;20090;-78
2023/08/07 00:50:02;;;;;;;3.78;2.53;;;;;;;;;;4967150;28;20102;-77
2023/08/07 00:52:29;;;;;;;3.63;2.65;;;;;;;;;;4966943;28;20050;-78
2023/08/07 00:54:55;;;;;;;4.63;2.85;;;;;;;;;;4963788;28;21228;-78
2023/08/07 00:57:24;;;;;;;3.63;2.78;;;;;;;;;;4980130;28;20523;-79
2023/08/07 00:59:51;;;;;;;4.25;2.72;;;;;;;;;;4981236;28;20054;-77
2023/08/07 01:02:18;;;;;;;4.20;2.85;;;;;;;;;;5001642;28;20042;-79
2023/08/07 01:04:46;;;;;;;3.33;2.80;;;;;;;;;;4986441;28;20057;-76
2023/08/07 01:07:12;;;;;;;4.50;2.80;;;;;;;;;;4987345;28;20050;-77
2023/08/07 01:09:39;;;;;;;3.58;2.78;;;;;;;;;;4991777;28;20061;-78
2023/08/07 01:12:06;;;;;;;4.50;2.80;;;;;;;;;;4994027;28;20112;-77
2023/08/07 01:14:51;;;;;;;3.22;2.47;;;;;;;;;;4989527;28;20046;-78
2023/08/07 01:17:19;;;;;;;4.90;2.35;;;;;;;;;;4982089;28;20126;-77
2023/08/07 01:19:47;;;;;;;2.70;2.20;;;;;;;;;;4975646;28;20055;-77
2023/08/07 01:22:15;;;;;;;3.55;2.30;;;;;;;;;;4989573;28;20129;-78
2023/08/07 01:24:43;;;;;;;3.03;2.33;;;;;;;;;;4980745;28;20110;-78
2023/08/07 01:27:15;;;;;;;3.13;2.40;;;;;;;;;;4977103;28;20122;-79
2023/08/07 01:29:44;;;;;;;5.05;2.60;;;;;;;;;;4974173;28;20050;-78
2023/08/07 01:32:14;;;;;;;3.50;2.53;;;;;;;;;;4973006;28;20043;-79
2023/08/07 01:34:41;;;;;;;5.10;3.00;;;;;;;;;;4974792;28;20046;-78
2023/08/07 01:37:10;;;;;;;3.38;2.45;;;;;;;;;;4976608;28;20050;-77
2023/08/07 01:39:37;;;;;;;6.05;2.70;;;;;;;;;;4997753;28;20047;-78
2023/08/07 01:42:04;;;;;;;4.25;2.50;;;;;;;;;;4977869;28;20094;-76
2023/08/07 01:44:31;;;;;;;5.20;2.90;;;;;;;;;;4955662;28;20165;-79
2023/08/07 01:46:58;;;;;;;4.22;2.65;;;;;;;;;;4973409;28;20050;-80
2023/08/07 01:49:25;;;;;;;3.97;2.72;;;;;;;;;;4978410;28;20421;-79
2023/08/07 01:51:51;;;;;;;3.92;2.83;;;;;;;;;;4966965;28;20055;-77
2023/08/07 01:54:18;;;;;;;3.95;3.05;;;;;;;;;;4980992;28;20050;-77
2023/08/07 01:56:45;;;;;;;3.72;2.80;;;;;;;;;;4971899;28;20524;-77
2023/08/07 01:59:11;;;;;;;4.57;3.08;;;;;;;;;;4977403;28;20527;-77
2023/08/07 02:01:38;;;;;;;5.43;3.13;;;;;;;;;;4979899;28;20070;-78
2023/08/07 02:04:04;;;;;;;6.70;3.20;;;;;;;;;;4979724;28;20105;-76
2023/08/07 02:06:31;;;;;;;4.63;3.08;;;;;;;;;;4973942;28;20055;-78
2023/08/07 02:08:58;;;;;;;4.35;3.35;;;;;;;;;;4971959;28;20050;-76
2023/08/07 02:11:24;;;;;;;8.68;3.55;;;;;;;;;;4977795;28;20074;-78
2023/08/07 02:13:51;;;;;;;6.32;3.65;;;;;;;;;;4962627;28;20134;-79
2023/08/07 02:16:18;;;;;;;4.63;3.28;;;;;;;;;;4984573;28;20053;-77
2023/08/07 02:18:44;;;;;;;5.90;3.45;;;;;;;;;;4977409;28;20039;-78
2023/08/07 02:21:11;;;;;;;7.90;4.38;;;;;;;;;;4955198;28;20070;-77
2023/08/07 02:23:38;;;;;;;6.78;3.50;;;;;;;;;;4975417;28;20043;-77
2023/08/07 02:26:05;;;;;;;5.80;3.80;;;;;;;;;;4976432;28;20058;-79
2023/08/07 02:28:31;;;;;;;5.65;3.70;;;;;;;;;;4981564;28;20130;-78
2023/08/07 02:30:59;;;;;;;5.72;3.58;;;;;;;;;;4982733;28;20043;-79
2023/08/07 02:33:26;;;;;;;6.85;3.67;;;;;;;;;;4981591;28;20062;-80
2023/08/07 02:35:53;;;;;;;5.07;3.78;;;;;;;;;;4987661;28;20047;-78
2023/08/07 02:38:19;;;;;;;7.05;4.05;;;;;;;;;;4974668;28;20126;-78
2023/08/07 02:40:46;;;;;;;8.27;3.72;;;;;;;;;;4972382;28;20118;-78
2023/08/07 02:43:13;;;;;;;6.90;4.15;;;;;;;;;;4991689;28;20042;-79
2023/08/07 02:45:39;;;;;;;5.80;3.78;;;;;;;;;;4984148;28;20066;-78
2023/08/07 02:48:06;;;;;;;8.80;4.20;;;;;;;;;;4984147;28;20051;-78
2023/08/07 02:50:33;;;;;;;7.55;4.00;;;;;;;;;;4978242;28;20042;-77
2023/08/07 02:53:00;;;;;;;7.43;4.55;;;;;;;;;;4979528;28;20504;-78
2023/08/07 02:55:27;;;;;;;7.00;4.28;;;;;;;;;;4977188;28;20505;-80
2023/08/07 02:57:54;;;;;;;6.70;4.25;;;;;;;;;;4983115;28;20055;-79
2023/08/07 03:00:20;;;;;;;6.57;4.20;;;;;;;;;;4985579;28;20113;-79
2023/08/07 03:02:50;;;;;;;5.13;3.50;;;;;;;;;;4977417;28;20050;-79
2023/08/07 03:05:16;;;;;;;10.68;3.85;;;;;;;;;;4980842;28;20049;-78
2023/08/07 03:07:43;;;;;;;8.10;3.97;;;;;;;;;;4976567;28;20057;-79
2023/08/07 03:10:10;;;;;;;6.15;4.07;;;;;;;;;;4981732;28;20137;-79
2023/08/07 03:12:38;;;;;;;8.40;4.40;;;;;;;;;;4983332;28;20157;-79
2023/08/07 03:15:05;;;;;;;8.82;4.30;;;;;;;;;;4978817;28;21299;-78
2023/08/07 03:17:31;;;;;;;7.50;4.50;;;;;;;;;;4999763;28;20170;-78
2023/08/07 03:19:58;;;;;;;5.95;4.20;;;;;;;;;;4985516;28;20262;-79
2023/08/07 03:22:25;;;;;;;10.65;4.85;;;;;;;;;;4984285;28;20575;-78
2023/08/07 03:24:52;;;;;;;9.80;4.97;;;;;;;;;;4984030;28;20122;-79
2023/08/07 03:27:18;;;;;;;8.02;4.68;;;;;;;;;;4988058;28;20042;-78
2023/08/07 03:29:45;;;;;;;8.63;4.47;;;;;;;;;;4988954;28;20102;-79
2023/08/07 03:32:13;;;;;;;9.32;4.40;;;;;;;;;;4978434;28;23779;-78
2023/08/07 03:34:40;;;;;;;6.97;4.75;;;;;;;;;;4998925;28;20050;-77
2023/08/07 03:37:07;;;;;;;9.00;4.85;;;;;;;;;;4974729;28;20066;-78
2023/08/07 03:39:34;;;;;;;9.13;4.72;;;;;;;;;;4978710;28;20046;-78
2023/08/07 03:42:00;;;;;;;8.85;5.13;;;;;;;;;;4980114;28;20074;-79
2023/08/07 03:44:28;;;;;;;8.40;5.00;;;;;;;;;;4985306;28;20050;-79
2023/08/07 03:46:56;;;;;;;7.78;5.07;;;;;;;;;;4985783;28;20053;-78
2023/08/07 03:49:24;;;;;;;8.70;5.18;;;;;;;;;;4983401;28;20043;-78
2023/08/07 03:51:51;;;;;;;7.63;4.90;;;;;;;;;;4981840;28;20122;-79
2023/08/07 03:54:19;;;;;;;7.53;5.30;;;;;;;;;;4972906;28;20047;-79
2023/08/07 03:56:46;;;;;;;9.13;5.13;;;;;;;;;;4979191;28;20047;-77
2023/08/07 03:59:13;;;;;;;8.90;5.20;;;;;;;;;;4978387;28;20055;-78
2023/08/07 04:01:40;;;;;;;7.93;4.78;;;;;;;;;;4983546;28;20051;-79
2023/08/07 04:04:06;;;;;;;8.77;5.47;;;;;;;;;;4983695;28;21223;-78
2023/08/07 04:06:33;;;;;;;11.70;5.10;;;;;;;;;;4981356;28;20150;-77
2023/08/07 04:09:00;;;;;;;7.63;4.95;;;;;;;;;;4984056;28;20261;-78
2023/08/07 04:11:27;;;;;;;7.45;4.72;;;;;;;;;;4980414;28;20069;-79
2023/08/07 04:13:54;;;;;;;8.98;4.60;;;;;;;;;;4983450;28;20066;-78
2023/08/07 04:16:21;;;;;;;8.15;4.43;;;;;;;;;;4984492;28;20038;-77
2023/08/07 04:18:48;;;;;;;8.43;4.35;;;;;;;;;;4977322;28;21441;-78
2023/08/07 04:21:14;;;;;;;7.20;4.32;;;;;;;;;;4967006;28;20043;-77
2023/08/07 04:23:41;;;;;;;11.10;4.18;;;;;;;;;;4971627;28;20039;-77
2023/08/07 04:26:09;;;;;;;10.20;4.22;;;;;;;;;;4985395;28;20054;-76
2023/08/07 04:28:36;;;;;;;7.45;4.30;;;;;;;;;;4979558;28;20125;-77
2023/08/07 04:31:02;;;;;;;7.18;4.35;;;;;;;;;;4971355;28;20098;-77
2023/08/07 04:33:29;;;;;;;13.55;4.40;;;;;;;;;;4968892;28;20042;-76
2023/08/07 04:35:56;;;;;;;7.75;3.97;;;;;;;;;;4973531;28;20521;-76
2023/08/07 04:38:22;;;;;;;7.35;3.80;;;;;;;;;;4973480;28;20129;-77
2023/08/07 04:40:49;;;;;;;5.20;3.65;;;;;;;;;;4971321;28;20358;-77
2023/08/07 04:43:19;;;;;;;5.40;3.03;;;;;;;;;;4967923;28;20521;-76
2023/08/07 04:45:46;;;;;;;6.07;3.72;;;;;;;;;;4968735;28;20047;-76
2023/08/07 04:48:13;;;;;;;5.05;3.20;;;;;;;;;;4949453;28;20148;-77
2023/08/07 04:50:40;;;;;;;8.00;3.17;;;;;;;;;;4975024;28;20493;-79
2023/08/07 04:53:06;;;;;;;6.28;3.80;;;;;;;;;;4959034;28;20156;-76
2023/08/07 04:55:33;;;;;;;6.07;3.10;;;;;;;;;;4974976;28;20127;-76
2023/08/07 04:58:00;;;;;;;7.00;3.25;;;;;;;;;;4966751;28;20512;-77
2023/08/07 05:00:27;;;;;;;6.72;3.30;;;;;;;;;;4993706;28;20420;-77
2023/08/07 05:02:54;;;;;;;4.07;2.90;;;;;;;;;;4971078;28;20416;-77
2023/08/07 05:05:21;;;;;;;6.28;3.20;;;;;;;;;;4967196;28;20497;-77
2023/08/07 05:07:48;;;;;;;4.78;2.97;;;;;;;;;;4970402;28;20053;-76
2023/08/07 05:10:15;;;;;;;4.22;2.53;;;;;;;;;;4970680;28;20057;-76
2023/08/07 05:12:41;;;;;;;4.93;2.72;;;;;;;;;;4976745;28;20046;-78
2023/08/07 05:15:08;;;;;;;3.88;2.40;;;;;;;;;;4980890;28;20109;-77
2023/08/07 05:17:35;;;;;;;9.70;2.70;;;;;;;;;;5003145;28;20050;-77
2023/08/07 05:20:02;;;;;;;3.65;2.20;;;;;;;;;;4977161;28;20437;-76
2023/08/07 05:22:29;;;;;;;3.55;2.38;;;;;;;;;;4992595;28;20238;-77
2023/08/07 05:24:56;;;;;;;4.75;2.17;;;;;;;;;;4985326;28;20069;-77
2023/08/07 05:27:22;;;;;;;3.53;2.10;;;;;;;;;;4991006;28;20069;-77
2023/08/07 05:29:49;;;;;;;5.40;2.55;;;;;;;;;;4994520;28;20150;-77
2023/08/07 05:32:16;;;;;;;5.15;2.00;;;;;;;;;;4993115;28;20054;-76
2023/08/07 05:34:43;;;;;;;5.07;2.10;;;;;;;;;;5006128;28;20465;-77
2023/08/07 05:37:10;;;;;;;5.72;2.15;;;;;;;;;;4977026;28;20042;-75
2023/08/07 05:39:36;;;;;;;3.95;1.95;;;;;;;;;;4978142;28;20050;-78
2023/08/07 05:42:03;;;;;;;5.30;2.30;;;;;;;;;;4982030;28;20051;-78
2023/08/07 05:44:30;;;;;;;5.00;1.90;;;;;;;;;;4978945;28;20053;-78
2023/08/07 05:46:56;;;;;;;3.17;1.60;;;;;;;;;;4983221;28;20415;-78
2023/08/07 05:49:23;;;;;;;3.35;1.83;;;;;;;;;;4981312;28;20102;-78
2023/08/07 05:51:52;;;;;;;4.25;1.95;;;;;;;;;;4981593;28;20474;-77
2023/08/07 05:54:19;;;;;;;2.40;1.50;;;;;;;;;;4974888;28;20035;-77
2023/08/07 05:56:46;;;;;;;4.45;1.92;;;;;;;;;;4958505;28;20035;-75
2023/08/07 05:59:13;;;;;;;1.88;1.30;;;;;;;;;;4973315;28;20045;-76
2023/08/07 06:01:40;;;;;;;3.25;1.52;;;;;;;;;;4971863;28;20066;-77
2023/08/07 06:04:10;;;;;;;4.03;1.60;;;;;;;;;;4970110;28;20043;-76
2023/08/07 06:06:39;;;;;;;1.67;1.08;;;;;;;;;;4970628;28;20046;-76
2023/08/07 06:09:06;;;;;;;4.35;1.10;;;;;;;;;;4975238;28;20528;-75
2023/08/07 06:11:33;;;;;;;1.70;1.08;;;;;;;;;;4968228;28;20047;-78
2023/08/07 06:14:01;;;;;;;1.65;1.08;;;;;;;;;;4975869;28;20047;-76
2023/08/07 06:16:28;;;;;;;2.28;1.10;;;;;;;;;;4956855;28;20050;-77
2023/08/07 06:18:55;;;;;;;3.58;2.03;;;;;;;;;;4976481;28;20065;-77
2023/08/07 06:21:22;;;;;;;3.72;1.35;;;;;;;;;;4976272;28;20669;-76
2023/08/07 06:23:48;;;;;;;1.42;1.00;;;;;;;;;;4976434;28;20070;-75
2023/08/07 06:26:15;;;;;;;2.15;1.10;;;;;;;;;;4974468;28;20043;-77
2023/08/07 06:28:42;;;;;;;1.83;0.90;;;;;;;;;;4965416;28;20108;-76
2023/08/07 06:31:10;;;;;;;1.00;0.80;;;;;;;;;;4975803;28;20138;-77
2023/08/07 06:33:37;;;;;;;3.60;1.08;;;;;;;;;;5000511;28;20054;-77
2023/08/07 06:36:04;;;;;;;1.77;1.10;;;;;;;;;;4976160;28;20054;-77
2023/08/07 06:38:30;;;;;;;1.60;1.00;;;;;;;;;;4974009;28;21560;-77
2023/08/07 06:40:57;;;;;;;1.20;0.90;;;;;;;;;;4974821;28;20436;-76
2023/08/07 06:43:25;;;;;;;3.50;1.00;;;;;;;;;;4969060;28;20049;-78
2023/08/07 06:45:52;;;;;;;1.35;0.93;;;;;;;;;;4976969;28;20292;-77
2023/08/07 06:48:19;;;;;;;2.72;1.10;;;;;;;;;;4979657;28;20043;-76
2023/08/07 06:50:49;;;;;;;4.03;1.10;;;;;;;;;;4986377;28;20130;-77
2023/08/07 06:53:19;;;;;;;2.15;1.20;;;;;;;;;;4973732;28;20106;-76
2023/08/07 06:55:45;;;;;;;1.88;0.90;;;;;;;;;;4958438;28;20070;-76
2023/08/07 06:58:12;;;;;;;1.45;0.77;;;;;;;;;;4973247;28;20586;-76
2023/08/07 07:00:41;;;;;;;3.55;0.88;;;;;;;;;;4972770;28;20142;-77
2023/08/07 07:03:09;;;;;;;1.40;0.90;;;;;;;;;;4970963;28;20170;-76
2023/08/07 07:05:36;;;;;;;1.20;0.80;;;;;;;;;;4973505;28;20042;-78
2023/08/07 07:08:03;;;;;;;3.03;1.00;;;;;;;;;;4975586;28;20050;-76
2023/08/07 07:10:30;;;;;;;2.08;1.10;;;;;;;;;;4979508;28;20043;-77
2023/08/07 07:12:56;;;;;;;1.65;1.10;;;;;;;;;;4958829;28;20077;-78
2023/08/07 07:15:23;;;;;;;2.15;1.20;;;;;;;;;;4972855;28;20628;-77
2023/08/07 07:17:49;;;;;;;2.55;1.10;;;;;;;;;;4960260;28;20050;-77
2023/08/07 07:20:16;;;;;;;1.38;0.98;;;;;;;;;;4977428;28;20039;-77
2023/08/07 07:22:43;;;;;;;4.85;1.27;;;;;;;;;;4973736;28;20092;-77
2023/08/07 07:25:09;;;;;;;2.58;1.17;;;;;;;;;;4979309;28;20626;-79
2023/08/07 07:27:36;;;;;;;2.08;1.20;;;;;;;;;;4975708;28;20042;-77
2023/08/07 07:30:03;;;;;;;2.67;1.20;;;;;;;;;;4975230;28;20053;-77
2023/08/07 07:32:29;;;;;;;3.08;1.48;;;;;;;;;;4971357;28;20053;-77
2023/08/07 07:34:56;;;;;;;2.15;1.30;;;;;;;;;;4976744;28;20047;-77
2023/08/07 07:37:23;;;;;;;2.40;1.42;;;;;;;;;;4973162;28;20065;-77
2023/08/07 07:39:49;;;;;;;4.68;1.30;;;;;;;;;;4974510;28;20825;-76
2023/08/07 07:42:16;;;;;;;2.65;1.13;;;;;;;;;;5002221;28;20051;-78
2023/08/07 07:44:43;;;;;;;2.63;1.20;;;;;;;;;;4964029;28;20043;-77
2023/08/07 07:47:10;;;;;;;2.42;1.10;;;;;;;;;;5008332;28;20043;-78
2023/08/07 07:49:39;;;;;;;1.60;1.00;;;;;;;;;;4976510;28;20588;-77
2023/08/07 07:52:06;;;;;;;1.98;1.17;;;;;;;;;;4978782;28;20063;-78
2023/08/07 07:54:35;;;;;;;3.55;1.00;;;;;;;;;;4976321;28;20046;-77
2023/08/07 07:57:01;;;;;;;3.03;1.27;;;;;;;;;;4981201;28;20055;-77
2023/08/07 07:59:28;;;;;;;2.85;1.10;;;;;;;;;;4957741;28;20053;-77
2023/08/07 08:01:55;;;;;;;3.42;1.23;;;;;;;;;;4972163;28;20046;-77
2023/08/07 08:04:22;;;;;;;3.05;1.20;;;;;;;;;;4952847;28;20038;-77
2023/08/07 08:06:49;;;;;;;5.05;1.15;;;;;;;;;;4971017;28;20410;-77
2023/08/07 08:09:15;;;;;;;2.30;1.00;;;;;;;;;;4977064;28;20047;-76
2023/08/07 08:11:42;;;;;;;1.52;1.00;;;;;;;;;;4979002;28;20051;-77
2023/08/07 08:14:09;;;;;;;2.85;1.10;;;;;;;;;;4977839;28;20046;-77
2023/08/07 08:16:36;;;;;;;1.10;1.00;;;;;;;;;;4970932;28;20260;-77
2023/08/07 08:19:03;;;;;;;4.38;1.10;;;;;;;;;;4954752;28;20521;-78
2023/08/07 08:21:30;;;;;;;1.75;1.10;;;;;;;;;;4975442;28;20073;-78
2023/08/07 08:23:58;;;;;;;2.35;1.00;;;;;;;;;;4972354;28;20042;-77
2023/08/07 08:26:24;;;;;;;5.05;1.35;;;;;;;;;;4973553;28;20476;-77
2023/08/07 08:28:51;;;;;;;1.75;1.13;;;;;;;;;;4992446;28;20093;-76
2023/08/07 08:31:17;;;;;;;2.85;1.25;;;;;;;;;;4977619;28;20042;-79
2023/08/07 08:33:44;;;;;;;2.47;1.10;;;;;;;;;;4977487;28;20072;-77
2023/08/07 08:36:11;;;;;;;1.83;0.90;;;;;;;;;;4975774;28;20055;-76
2023/08/07 08:38:38;;;;;;;1.10;0.82;;;;;;;;;;4975621;28;20140;-76
2023/08/07 08:41:06;;;;;;;1.60;1.17;;;;;;;;;;4971476;28;20077;-76
2023/08/07 08:43:34;;;;;;;1.80;1.00;;;;;;;;;;4969096;28;20042;-76
2023/08/07 08:46:01;;;;;;;2.72;1.30;;;;;;;;;;4969132;28;20051;-77
2023/08/07 08:48:31;;;;;;;2.22;1.10;;;;;;;;;;4983640;28;20290;-77
2023/08/07 08:50:58;;;;;;;2.08;0.95;;;;;;;;;;4954877;28;20042;-76
2023/08/07 08:53:25;;;;;;;8.20;1.10;;;;;;;;;;4969714;28;20133;-76
2023/08/07 08:55:52;;;;;;;2.90;0.90;;;;;;;;;;4966348;28;20116;-77
2023/08/07 08:58:19;;;;;;;1.85;1.20;;;;;;;;;;4973555;28;20431;-77
2023/08/07 09:00:47;;;;;;;2.50;1.27;;;;;;;;;;4954359;28;20101;-76
2023/08/07 09:03:14;;;;;;;3.08;1.60;;;;;;;;;;4965333;28;20117;-76
2023/08/07 09:05:41;;;;;;;4.55;1.27;;;;;;;;;;4968332;28;20042;-76
2023/08/07 09:08:09;;;;;;;2.25;1.65;;;;;;;;;;4975017;28;20074;-76
2023/08/07 09:10:36;;;;;;;3.70;1.42;;;;;;;;;;4968487;28;20066;-76
2023/08/07 09:13:05;;;;;;;2.47;1.63;;;;;;;;;;4951817;28;20050;-77
2023/08/07 09:15:32;;;;;;;2.88;1.60;;;;;;;;;;4968572;28;20106;-77
2023/08/07 09:18:00;;;;;;;5.82;1.67;;;;;;;;;;4974377;28;20057;-76
2023/08/07 09:20:28;;;;;;;2.45;1.60;;;;;;;;;;4973608;28;20043;-76
2023/08/07 09:22:55;;;;;;;1.92;1.50;;;;;;;;;;4961051;28;20068;-77
2023/08/07 09:25:28;;;;;;;1.83;1.40;;;;;;;;;;4978553;28;20039;-77
2023/08/07 09:27:56;;;;;;;1.77;1.25;;;;;;;;;;4968700;28;20236;-77
2023/08/07 09:30:26;;;;;;;2.38;1.40;;;;;;;;;;5001693;28;20039;-76
2023/08/07 09:32:53;;;;;;;1.75;1.25;;;;;;;;;;4973679;28;20090;-76
2023/08/07 09:35:22;;;;;;;4.30;1.10;;;;;;;;;;4953548;28;20075;-76
2023/08/07 09:37:50;;;;;;;5.75;1.40;;;;;;;;;;4934365;28;20063;-77
2023/08/07 09:40:17;;;;;;;3.00;1.08;;;;;;;;;;4951472;28;20043;-77
2023/08/07 09:42:44;;;;;;;1.70;1.10;;;;;;;;;;4946926;28;20566;-76
2023/08/07 09:45:21;;;;;;;1.45;0.95;;;;;;;;;;4951138;28;20070;-77
2023/08/07 09:48:04;;;;;;;2.90;1.15;;;;;;;;;;4979305;28;20043;-77
2023/08/07 09:50:31;;;;;;;3.72;1.27;;;;;;;;;;4951751;28;20419;-77
2023/08/07 09:52:58;;;;;;;1.60;1.02;;;;;;;;;;4948468;28;20157;-77
2023/08/07 09:55:26;;;;;;;3.42;1.17;;;;;;;;;;4955413;28;20039;-77
2023/08/07 09:57:53;;;;;;;1.83;1.02;;;;;;;;;;4965418;28;20361;-78
2023/08/07 10:00:21;;;;;;;2.05;1.10;;;;;;;;;;4961045;28;20038;-77
2023/08/07 10:02:48;;;;;;;2.60;0.95;;;;;;;;;;4952379;28;20062;-76
2023/08/07 10:05:15;;;;;;;3.65;1.10;;;;;;;;;;4970320;28;20042;-77
2023/08/07 10:07:42;;;;;;;2.38;0.95;;;;;;;;;;4966780;28;20042;-78
2023/08/07 10:10:10;;;;;;;2.33;0.95;;;;;;;;;;4975119;28;20047;-77
2023/08/07 10:12:37;;;;;;;3.38;0.70;;;;;;;;;;4980960;28;20055;-76
2023/08/07 10:15:04;;;;;;;1.02;0.75;;;;;;;;;;4988167;28;20051;-76
2023/08/07 10:17:31;;;;;;;1.05;0.75;;;;;;;;;;5016305;28;20043;-77
2023/08/07 10:19:58;;;;;;;1.20;0.90;;;;;;;;;;4976323;28;20047;-78
2023/08/07 10:22:26;;;;;;;3.72;0.80;;;;;;;;;;4988168;28;20043;-77
2023/08/07 10:24:53;;;;;;;1.70;0.80;;;;;;;;;;4976237;28;20074;-77
2023/08/07 10:27:21;;;;;;;1.80;0.70;;;;;;;;;;4996122;28;20054;-77
2023/08/07 10:29:48;;;;;;;3.55;0.85;;;;;;;;;;4956650;28;20050;-77
2023/08/07 10:32:17;;;;;;;1.35;0.60;;;;;;;;;;4989190;28;20102;-77
2023/08/07 10:34:47;;;;;;;2.05;0.60;;;;;;;;;;4977579;28;20047;-78
2023/08/07 10:37:34;;;;;;;1.23;0.60;;;;;;;;;;4972761;28;20073;-76
2023/08/07 10:40:03;;;;;;;2.95;0.70;;;;;;;;;;4972848;28;20328;-78
2023/08/07 10:42:49;;;;;;;2.55;0.68;;;;;;;;;;4975077;28;20437;-76
2023/08/07 10:45:22;;;;;;;5.78;1.00;;;;;;;;;;4976008;28;20081;-77
2023/08/07 10:48:18;;;;;;;1.40;0.80;;;;;;;;;;4957639;28;20101;-77
2023/08/07 10:50:51;;;;;;;1.73;1.02;;;;;;;;;;4984464;28;20215;-77
2023/08/07 10:53:19;;;;;;;2.28;1.02;;;;;;;;;;4970124;28;20069;-77
2023/08/07 10:55:46;;;;;;;1.40;0.75;;;;;;;;;;4971551;28;20497;-77
2023/08/07 10:58:25;;;;;;;1.35;0.70;;;;;;;;;;4973667;28;20046;-77
2023/08/07 11:01:12;;;;;;;1.48;0.60;;;;;;;;;;4991202;28;20039;-77
2023/08/07 11:03:40;;;;;;;1.52;0.90;;;;;;;;;;4970843;28;20551;-77
2023/08/07 11:06:08;;;;;;;2.05;0.95;;;;;;;;;;4976337;28;20042;-78
2023/08/07 11:08:35;;;;;;;2.35;1.00;;;;;;;;;;4975277;28;20047;-79
2023/08/07 11:11:06;;;;;;;1.60;0.70;;;;;;;;;;5004242;28;20057;-78
2023/08/07 11:13:33;;;;;;;1.58;0.60;;;;;;;;;;4980099;28;20347;-77
2023/08/07 11:16:01;;;;;;;3.25;0.70;;;;;;;;;;4989957;28;21611;-78
2023/08/07 11:18:30;;;;;;;1.20;0.82;;;;;;;;;;4975068;28;20058;-78
2023/08/07 11:20:57;;;;;;;1.88;0.90;;;;;;;;;;4977147;28;20433;-77
2023/08/07 11:23:24;;;;;;;3.75;0.70;;;;;;;;;;4977136;28;20159;-77
2023/08/07 11:25:54;;;;;;;0.95;0.75;;;;;;;;;;4978846;28;20039;-76
2023/08/07 11:28:21;;;;;;;2.40;0.80;;;;;;;;;;4982164;28;20074;-78
2023/08/07 11:30:50;;;;;;;1.77;0.50;;;;;;;;;;4981411;28;20058;-77
2023/08/07 11:33:18;;;;;;;0.70;0.52;;;;;;;;;;4973890;28;20076;-77
2023/08/07 11:35:45;;;;;;;0.55;0.43;;;;;;;;;;4979669;28;20457;-77
2023/08/07 11:38:12;;;;;;;1.27;0.40;;;;;;;;;;4980363;28;20058;-77
2023/08/07 11:40:38;;;;;;;1.48;0.40;;;;;;;;;;4979720;28;20039;-78
2023/08/07 11:43:05;;;;;;;1.10;0.50;;;;;;;;;;4986391;28;20038;-77
2023/08/07 11:45:32;;;;;;;0.95;0.40;;;;;;;;;;4982587;28;20047;-77
2023/08/07 11:48:01;;;;;;;0.80;0.40;;;;;;;;;;4977384;28;20058;-78
2023/08/07 11:50:28;;;;;;;0.30;0.25;;;;;;;;;;4979585;28;20066;-78
2023/08/07 11:53:00;;;;;;;0.30;0.30;;;;;;;;;;4978328;28;20042;-78
2023/08/07 11:55:28;;;;;;;0.88;0.40;;;;;;;;;;4977971;28;20097;-79
2023/08/07 11:57:57;;;;;;;1.08;0.47;;;;;;;;;;4981237;28;20301;-78
2023/08/07 12:00:28;;;;;;;1.02;0.60;;;;;;;;;;4989533;28;20106;-78
2023/08/07 12:02:55;;;;;;;1.55;0.52;;;;;;;;;;4975685;28;20054;-78
2023/08/07 12:05:23;;;;;;;1.80;0.60;;;;;;;;;;4988094;28;20041;-77
2023/08/07 12:07:49;;;;;;;4.47;0.50;;;;;;;;;;4974672;28;20042;-75
2023/08/07 12:10:16;;;;;;;0.40;0.32;;;;;;;;;;4971136;28;20079;-78
2023/08/07 12:12:43;;;;;;;0.70;0.40;;;;;;;;;;4978452;28;20043;-78
2023/08/07 12:15:10;;;;;;;0.70;0.40;;;;;;;;;;4972068;28;20080;-78
2023/08/07 12:17:36;;;;;;;0.50;0.40;;;;;;;;;;5006020;28;20397;-78
2023/08/07 12:20:10;;;;;;;0.60;0.30;;;;;;;;;;4972867;28;20047;-79
2023/08/07 12:22:37;;;;;;;1.63;0.38;;;;;;;;;;4976428;28;20050;-79
2023/08/07 12:25:04;;;;;;;0.50;0.30;;;;;;;;;;4980619;28;20046;-78
2023/08/07 12:27:30;;;;;;;0.88;0.30;;;;;;;;;;4975248;28;20129;-78
2023/08/07 12:29:57;;;;;;;0.60;0.40;;;;;;;;;;4976330;28;20051;-79
2023/08/07 12:32:24;;;;;;;1.85;0.30;;;;;;;;;;5007858;28;20042;-77
2023/08/07 12:34:51;;;;;;;0.50;0.40;;;;;;;;;;4980456;28;20050;-79
2023/08/07 12:37:20;;;;;;;0.30;0.30;;;;;;;;;;4973164;28;20068;-79
2023/08/07 12:39:47;;;;;;;1.52;0.40;;;;;;;;;;4978453;28;20047;-79
2023/08/07 12:42:16;;;;;;;0.20;0.20;;;;;;;;;;4979841;28;20039;-78
2023/08/07 12:44:46;;;;;;;0.40;0.40;;;;;;;;;;4978014;28;20054;-78
2023/08/07 12:47:12;;;;;;;0.60;0.40;;;;;;;;;;4991420;28;20069;-78
2023/08/07 12:49:39;;;;;;;1.63;0.30;;;;;;;;;;4974667;28;20057;-80
2023/08/07 12:52:06;;;;;;;0.22;0.20;;;;;;;;;;4983988;28;20054;-81
2023/08/07 12:54:32;;;;;;;1.95;0.50;;;;;;;;;;4978869;28;20070;-80
2023/08/07 12:56:59;;;;;;;0.50;0.30;;;;;;;;;;4986015;28;20097;-80
2023/08/07 12:59:26;;;;;;;2.15;0.40;;;;;;;;;;4983373;28;20038;-80
2023/08/07 13:01:53;;;;;;;0.68;0.20;;;;;;;;;;4978875;28;20039;-80
2023/08/07 13:04:20;;;;;;;0.90;0.30;;;;;;;;;;4962657;28;20051;-81
2023/08/07 13:06:49;;;;;;;0.85;0.47;;;;;;;;;;4974448;28;20122;-80
2023/08/07 13:09:16;;;;;;;0.38;0.20;;;;;;;;;;4981842;28;20057;-81
2023/08/07 13:11:42;;;;;;;0.28;0.20;;;;;;;;;;4976947;28;20517;-80
2023/08/07 13:14:09;;;;;;;0.57;0.22;;;;;;;;;;4978094;28;20047;-80
2023/08/07 13:16:36;;;;;;;1.02;0.20;;;;;;;;;;4984553;28;20295;-81
2023/08/07 13:19:02;;;;;;;0.80;0.20;;;;;;;;;;4991604;28;20037;-78
2023/08/07 13:21:31;;;;;;;0.30;0.30;;;;;;;;;;5021844;28;20050;-79
2023/08/07 13:23:58;;;;;;;2.13;0.20;;;;;;;;;;4990331;28;20041;-78
2023/08/07 13:26:24;;;;;;;1.63;0.17;;;;;;;;;;5021417;28;20067;-77
2023/08/07 13:28:51;;;;;;;1.17;0.38;;;;;;;;;;4991656;28;20030;-77
2023/08/07 13:31:18;;;;;;;0.88;0.20;;;;;;;;;;4982528;28;20062;-79
2023/08/07 13:33:44;;;;;;;1.10;0.20;;;;;;;;;;4985836;28;20541;-79
2023/08/07 13:36:11;;;;;;;0.40;0.30;;;;;;;;;;4984869;28;20050;-78
2023/08/07 13:38:38;;;;;;;4.32;0.28;;;;;;;;;;4976508;28;20133;-78
2023/08/07 13:41:04;;;;;;;0.35;0.30;;;;;;;;;;4977106;28;20059;-78
2023/08/07 13:43:31;;;;;;;0.20;0.20;;;;;;;;;;5013631;28;20039;-79
2023/08/07 13:45:58;;;;;;;0.90;0.30;;;;;;;;;;4986641;28;20049;-79
2023/08/07 13:48:26;;;;;;;0.60;0.30;;;;;;;;;;4993434;28;20042;-78
2023/08/07 13:50:53;;;;;;;0.20;0.20;;;;;;;;;;5007687;28;20046;-79
2023/08/07 13:53:20;;;;;;;0.52;0.30;;;;;;;;;;5013594;28;20070;-79
2023/08/07 13:55:47;;;;;;;2.35;0.30;;;;;;;;;;4980831;28;20429;-78
2023/08/07 13:58:16;;;;;;;0.20;0.20;;;;;;;;;;4987512;28;20462;-79
2023/08/07 14:00:43;;;;;;;0.55;0.30;;;;;;;;;;4978775;28;20039;-80
2023/08/07 14:03:12;;;;;;;0.98;0.35;;;;;;;;;;4980832;28;20047;-80
2023/08/07 14:05:39;;;;;;;5.30;0.55;;;;;;;;;;4984730;28;20054;-80
2023/08/07 14:08:06;;;;;;;0.50;0.30;;;;;;;;;;4986274;28;20249;-79
2023/08/07 14:10:33;;;;;;;0.80;0.40;;;;;;;;;;4978478;28;20105;-78
2023/08/07 14:12:59;;;;;;;2.67;0.60;;;;;;;;;;4984252;28;20275;-79
2023/08/07 14:15:26;;;;;;;1.08;0.50;;;;;;;;;;4982854;28;20050;-78
2023/08/07 14:17:53;;;;;;;1.48;0.60;;;;;;;;;;4974646;28;20571;-80
2023/08/07 14:20:23;;;;;;;0.98;0.50;;;;;;;;;;4977479;28;20058;-77
2023/08/07 14:22:50;;;;;;;2.38;0.50;;;;;;;;;;4977338;28;20050;-78
2023/08/07 14:25:17;;;;;;;1.15;0.60;;;;;;;;;;4977325;28;20039;-78
2023/08/07 14:27:43;;;;;;;1.67;0.50;;;;;;;;;;4977862;28;20046;-78
2023/08/07 14:30:10;;;;;;;0.90;0.50;;;;;;;;;;4976036;28;20076;-77
2023/08/07 14:32:37;;;;;;;3.92;0.70;;;;;;;;;;4978035;28;20042;-77
2023/08/07 14:35:04;;;;;;;2.25;0.60;;;;;;;;;;4975103;28;20039;-77
2023/08/07 14:37:30;;;;;;;1.00;0.80;;;;;;;;;;4978515;28;20047;-78
2023/08/07 14:39:57;;;;;;;1.60;0.70;;;;;;;;;;4971804;28;20064;-77
2023/08/07 14:42:24;;;;;;;2.25;0.77;;;;;;;;;;4989676;28;20126;-77
2023/08/07 14:44:51;;;;;;;1.10;0.63;;;;;;;;;;4974097;28;20106;-77